sensor_id;sensor_type;location;lat;lon;timestamp;P1;durP1;ratioP1;P2;durP2;ratioP2
19623;SDS011;9959;49.798;9.928;2023-02-28T00:01:05;9.37;;;4.57;;
19623;SDS011;9959;49.798;9.928;2023-02-28T00:03:32;11.73;;;4.90;;
19623;SDS011;9959;49.798;9.928;2023-02-28T00:06:02;10.47;;;5.03;;
19623;SDS011;9959;49.798;9.928;2023-02-28T00:08:30;9.67;;;4.33;;
19623;SDS011;9959;49.798;9.928;2023-02-28T00:11:04;7.83;;;4.13;;
19623;SDS011;9959;49.798;9.928;2023-02-28T00:13:34;12.47;;;4.83;;
19623;SDS011;9959;49.798;9.928;2023-02-28T00:16:07;11.67;;;5.17;;
19623;SDS011;9959;49.798;9.928;2023-02-28T00:18:36;8.30;;;4.47;;
19623;SDS011;9959;49.798;9.928;2023-02-28T00:21:04;9.73;;;4.60;;
19623;SDS011;9959;49.798;9.928;2023-02-28T00:23:31;9.53;;;4.20;;
19623;SDS011;9959;49.798;9.928;2023-02-28T00:25:59;10.97;;;5.17;;
19623;SDS011;9959;49.798;9.928;2023-02-28T00:28:26;10.00;;;4.37;;
19623;SDS011;9959;49.798;9.928;2023-02-28T00:30:53;8.67;;;4.63;;
19623;SDS011;9959;49.798;9.928;2023-02-28T00:33:20;9.33;;;4.97;;
19623;SDS011;9959;49.798;9.928;2023-02-28T00:35:47;7.90;;;3.70;;
19623;SDS011;9959;49.798;9.928;2023-02-28T00:38:15;10.37;;;5.43;;
19623;SDS011;9959;49.798;9.928;2023-02-28T00:40:44;8.63;;;4.27;;
19623;SDS011;9959;49.798;9.928;2023-02-28T00:43:13;11.53;;;5.07;;
19623;SDS011;9959;49.798;9.928;2023-02-28T00:45:41;8.40;;;4.00;;
19623;SDS011;9959;49.798;9.928;2023-02-28T00:48:08;8.30;;;4.57;;
19623;SDS011;9959;49.798;9.928;2023-02-28T00:50:35;10.23;;;4.83;;
19623;SDS011;9959;49.798;9.928;2023-02-28T00:53:02;7.97;;;4.40;;
19623;SDS011;9959;49.798;9.928;2023-02-28T00:55:29;8.83;;;4.70;;
19623;SDS011;9959;49.798;9.928;2023-02-28T00:57:56;11.17;;;5.50;;
19623;SDS011;9959;49.798;9.928;2023-02-28T01:00:22;10.07;;;4.60;;
19623;SDS011;9959;49.798;9.928;2023-02-28T01:02:49;11.33;;;4.17;;
19623;SDS011;9959;49.798;9.928;2023-02-28T01:05:16;11.47;;;4.90;;
19623;SDS011;9959;49.798;9.928;2023-02-28T01:07:43;6.20;;;3.50;;
19623;SDS011;9959;49.798;9.928;2023-02-28T01:10:13;10.00;;;5.50;;
19623;SDS011;9959;49.798;9.928;2023-02-28T01:15:10;12.97;;;5.17;;
19623;SDS011;9959;49.798;9.928;2023-02-28T01:17:37;9.83;;;5.13;;
19623;SDS011;9959;49.798;9.928;2023-02-28T01:20:04;13.57;;;5.57;;
19623;SDS011;9959;49.798;9.928;2023-02-28T01:22:31;9.50;;;5.27;;
19623;SDS011;9959;49.798;9.928;2023-02-28T01:24:58;9.70;;;4.67;;
19623;SDS011;9959;49.798;9.928;2023-02-28T01:27:25;11.37;;;5.27;;
19623;SDS011;9959;49.798;9.928;2023-02-28T01:29:52;7.57;;;4.43;;
19623;SDS011;9959;49.798;9.928;2023-02-28T01:32:19;9.03;;;4.70;;
19623;SDS011;9959;49.798;9.928;2023-02-28T01:34:46;8.77;;;4.37;;
19623;SDS011;9959;49.798;9.928;2023-02-28T01:37:13;7.33;;;4.10;;
19623;SDS011;9959;49.798;9.928;2023-02-28T01:39:39;7.40;;;4.07;;
19623;SDS011;9959;49.798;9.928;2023-02-28T01:42:05;10.77;;;4.43;;
19623;SDS011;9959;49.798;9.928;2023-02-28T01:47:07;9.70;;;4.27;;
19623;SDS011;9959;49.798;9.928;2023-02-28T01:49:34;12.07;;;4.60;;
19623;SDS011;9959;49.798;9.928;2023-02-28T01:52:01;11.50;;;5.43;;
19623;SDS011;9959;49.798;9.928;2023-02-28T01:54:29;6.87;;;3.27;;
19623;SDS011;9959;49.798;9.928;2023-02-28T01:57:07;11.17;;;4.73;;
19623;SDS011;9959;49.798;9.928;2023-02-28T02:02:15;13.77;;;5.07;;
19623;SDS011;9959;49.798;9.928;2023-02-28T02:04:51;9.83;;;4.63;;
19623;SDS011;9959;49.798;9.928;2023-02-28T02:07:21;9.30;;;4.63;;
19623;SDS011;9959;49.798;9.928;2023-02-28T02:09:49;11.07;;;5.50;;
19623;SDS011;9959;49.798;9.928;2023-02-28T02:12:21;10.07;;;5.13;;
19623;SDS011;9959;49.798;9.928;2023-02-28T02:15:01;13.53;;;5.10;;
19623;SDS011;9959;49.798;9.928;2023-02-28T02:17:39;11.20;;;5.23;;
19623;SDS011;9959;49.798;9.928;2023-02-28T02:20:22;11.27;;;5.33;;
19623;SDS011;9959;49.798;9.928;2023-02-28T02:31:16;11.40;;;5.80;;
19623;SDS011;9959;49.798;9.928;2023-02-28T02:34:24;11.40;;;4.77;;
19623;SDS011;9959;49.798;9.928;2023-02-28T02:37:01;11.00;;;5.67;;
19623;SDS011;9959;49.798;9.928;2023-02-28T02:45:09;10.57;;;5.30;;
19623;SDS011;9959;49.798;9.928;2023-02-28T02:47:42;13.73;;;5.03;;
19623;SDS011;9959;49.798;9.928;2023-02-28T02:50:30;13.37;;;5.20;;
19623;SDS011;9959;49.798;9.928;2023-02-28T02:53:04;10.67;;;4.93;;
19623;SDS011;9959;49.798;9.928;2023-02-28T02:55:34;15.40;;;5.77;;
19623;SDS011;9959;49.798;9.928;2023-02-28T02:58:08;11.47;;;5.67;;
19623;SDS011;9959;49.798;9.928;2023-02-28T03:03:08;10.60;;;4.57;;
19623;SDS011;9959;49.798;9.928;2023-02-28T03:08:07;16.00;;;6.33;;
19623;SDS011;9959;49.798;9.928;2023-02-28T03:10:38;8.33;;;4.30;;
19623;SDS011;9959;49.798;9.928;2023-02-28T03:16:01;12.97;;;6.07;;
19623;SDS011;9959;49.798;9.928;2023-02-28T03:26:24;16.63;;;5.47;;
19623;SDS011;9959;49.798;9.928;2023-02-28T03:28:56;12.23;;;5.57;;
19623;SDS011;9959;49.798;9.928;2023-02-28T03:34:12;13.30;;;5.57;;
19623;SDS011;9959;49.798;9.928;2023-02-28T03:36:46;12.07;;;5.33;;
19623;SDS011;9959;49.798;9.928;2023-02-28T03:39:21;9.47;;;5.07;;
19623;SDS011;9959;49.798;9.928;2023-02-28T03:41:57;14.73;;;6.03;;
19623;SDS011;9959;49.798;9.928;2023-02-28T03:47:09;13.87;;;6.20;;
19623;SDS011;9959;49.798;9.928;2023-02-28T03:49:53;15.27;;;5.90;;
19623;SDS011;9959;49.798;9.928;2023-02-28T03:52:27;11.93;;;6.33;;
19623;SDS011;9959;49.798;9.928;2023-02-28T03:54:59;12.60;;;6.40;;
19623;SDS011;9959;49.798;9.928;2023-02-28T04:00:10;15.53;;;5.10;;
19623;SDS011;9959;49.798;9.928;2023-02-28T04:02:40;11.30;;;5.37;;
19623;SDS011;9959;49.798;9.928;2023-02-28T04:05:07;12.93;;;5.37;;
19623;SDS011;9959;49.798;9.928;2023-02-28T04:07:34;13.87;;;5.30;;
19623;SDS011;9959;49.798;9.928;2023-02-28T04:10:02;14.70;;;5.80;;
19623;SDS011;9959;49.798;9.928;2023-02-28T04:12:30;11.23;;;5.33;;
19623;SDS011;9959;49.798;9.928;2023-02-28T04:14:57;14.37;;;6.00;;
19623;SDS011;9959;49.798;9.928;2023-02-28T04:17:23;10.77;;;5.60;;
19623;SDS011;9959;49.798;9.928;2023-02-28T04:19:50;9.23;;;5.20;;
19623;SDS011;9959;49.798;9.928;2023-02-28T04:22:17;10.47;;;5.40;;
19623;SDS011;9959;49.798;9.928;2023-02-28T04:24:44;9.83;;;5.10;;
19623;SDS011;9959;49.798;9.928;2023-02-28T04:27:11;14.27;;;6.20;;
19623;SDS011;9959;49.798;9.928;2023-02-28T04:29:41;13.23;;;5.50;;
19623;SDS011;9959;49.798;9.928;2023-02-28T04:32:11;12.00;;;5.27;;
19623;SDS011;9959;49.798;9.928;2023-02-28T04:34:39;14.80;;;6.60;;
19623;SDS011;9959;49.798;9.928;2023-02-28T04:37:06;15.57;;;5.70;;
19623;SDS011;9959;49.798;9.928;2023-02-28T04:39:39;13.23;;;6.77;;
19623;SDS011;9959;49.798;9.928;2023-02-28T04:42:08;11.60;;;5.33;;
19623;SDS011;9959;49.798;9.928;2023-02-28T04:44:36;11.03;;;5.03;;
19623;SDS011;9959;49.798;9.928;2023-02-28T04:47:02;10.27;;;6.03;;
19623;SDS011;9959;49.798;9.928;2023-02-28T04:49:29;11.40;;;5.43;;
19623;SDS011;9959;49.798;9.928;2023-02-28T04:51:56;14.63;;;6.10;;
19623;SDS011;9959;49.798;9.928;2023-02-28T04:54:23;12.03;;;6.23;;
19623;SDS011;9959;49.798;9.928;2023-02-28T04:56:49;13.93;;;6.43;;
19623;SDS011;9959;49.798;9.928;2023-02-28T04:59:16;13.93;;;5.57;;
19623;SDS011;9959;49.798;9.928;2023-02-28T05:01:47;10.17;;;4.47;;
19623;SDS011;9959;49.798;9.928;2023-02-28T05:04:15;13.90;;;5.43;;
19623;SDS011;9959;49.798;9.928;2023-02-28T05:06:42;11.10;;;5.37;;
19623;SDS011;9959;49.798;9.928;2023-02-28T05:09:09;12.43;;;5.10;;
19623;SDS011;9959;49.798;9.928;2023-02-28T05:11:39;12.03;;;5.53;;
19623;SDS011;9959;49.798;9.928;2023-02-28T05:14:11;10.63;;;5.43;;
19623;SDS011;9959;49.798;9.928;2023-02-28T05:16:41;12.17;;;5.87;;
19623;SDS011;9959;49.798;9.928;2023-02-28T05:19:08;13.10;;;5.23;;
19623;SDS011;9959;49.798;9.928;2023-02-28T05:21:36;14.10;;;5.93;;
19623;SDS011;9959;49.798;9.928;2023-02-28T05:24:11;10.93;;;5.03;;
19623;SDS011;9959;49.798;9.928;2023-02-28T05:29:08;4.23;;;2.70;;
19623;SDS011;9959;49.798;9.928;2023-02-28T05:31:35;11.33;;;4.23;;
19623;SDS011;9959;49.798;9.928;2023-02-28T05:34:02;9.67;;;4.70;;
19623;SDS011;9959;49.798;9.928;2023-02-28T05:36:32;11.07;;;4.67;;
19623;SDS011;9959;49.798;9.928;2023-02-28T05:39:00;12.00;;;4.80;;
19623;SDS011;9959;49.798;9.928;2023-02-28T05:41:26;13.40;;;4.97;;
19623;SDS011;9959;49.798;9.928;2023-02-28T05:43:54;12.10;;;5.20;;
19623;SDS011;9959;49.798;9.928;2023-02-28T05:46:21;11.07;;;4.60;;
19623;SDS011;9959;49.798;9.928;2023-02-28T05:48:48;14.63;;;4.07;;
19623;SDS011;9959;49.798;9.928;2023-02-28T05:51:15;10.03;;;5.33;;
19623;SDS011;9959;49.798;9.928;2023-02-28T05:53:43;13.90;;;5.03;;
19623;SDS011;9959;49.798;9.928;2023-02-28T05:56:09;11.53;;;4.80;;
19623;SDS011;9959;49.798;9.928;2023-02-28T05:58:37;10.70;;;4.73;;
19623;SDS011;9959;49.798;9.928;2023-02-28T06:01:20;12.53;;;5.70;;
19623;SDS011;9959;49.798;9.928;2023-02-28T06:03:55;8.57;;;3.97;;
19623;SDS011;9959;49.798;9.928;2023-02-28T06:06:22;9.23;;;4.90;;
19623;SDS011;9959;49.798;9.928;2023-02-28T06:08:48;11.07;;;5.23;;
19623;SDS011;9959;49.798;9.928;2023-02-28T06:11:15;11.93;;;4.70;;
19623;SDS011;9959;49.798;9.928;2023-02-28T06:13:42;9.60;;;4.97;;
19623;SDS011;9959;49.798;9.928;2023-02-28T06:16:10;9.67;;;4.33;;
19623;SDS011;9959;49.798;9.928;2023-02-28T06:18:37;9.60;;;4.70;;
19623;SDS011;9959;49.798;9.928;2023-02-28T06:21:04;12.13;;;4.93;;
19623;SDS011;9959;49.798;9.928;2023-02-28T06:23:32;11.47;;;4.47;;
19623;SDS011;9959;49.798;9.928;2023-02-28T06:25:59;8.40;;;4.70;;
19623;SDS011;9959;49.798;9.928;2023-02-28T06:28:26;7.50;;;4.10;;
19623;SDS011;9959;49.798;9.928;2023-02-28T06:30:53;13.13;;;4.80;;
19623;SDS011;9959;49.798;9.928;2023-02-28T06:33:20;11.17;;;4.93;;
19623;SDS011;9959;49.798;9.928;2023-02-28T06:35:49;8.40;;;3.63;;
19623;SDS011;9959;49.798;9.928;2023-02-28T06:38:17;13.43;;;5.07;;
19623;SDS011;9959;49.798;9.928;2023-02-28T06:40:44;8.73;;;4.53;;
19623;SDS011;9959;49.798;9.928;2023-02-28T06:43:11;10.57;;;4.53;;
19623;SDS011;9959;49.798;9.928;2023-02-28T06:45:41;10.13;;;4.40;;
19623;SDS011;9959;49.798;9.928;2023-02-28T06:48:09;11.33;;;4.63;;
19623;SDS011;9959;49.798;9.928;2023-02-28T06:50:36;9.47;;;4.67;;
19623;SDS011;9959;49.798;9.928;2023-02-28T06:53:05;11.23;;;4.30;;
19623;SDS011;9959;49.798;9.928;2023-02-28T06:55:32;6.87;;;3.90;;
19623;SDS011;9959;49.798;9.928;2023-02-28T06:57:59;12.37;;;3.37;;
19623;SDS011;9959;49.798;9.928;2023-02-28T07:00:26;12.70;;;4.50;;
19623;SDS011;9959;49.798;9.928;2023-02-28T07:02:53;7.90;;;4.17;;
19623;SDS011;9959;49.798;9.928;2023-02-28T07:05:21;7.80;;;4.27;;
19623;SDS011;9959;49.798;9.928;2023-02-28T07:07:48;10.43;;;4.90;;
19623;SDS011;9959;49.798;9.928;2023-02-28T07:10:15;8.20;;;4.47;;
19623;SDS011;9959;49.798;9.928;2023-02-28T07:12:45;11.80;;;5.00;;
19623;SDS011;9959;49.798;9.928;2023-02-28T07:15:12;11.53;;;4.97;;
19623;SDS011;9959;49.798;9.928;2023-02-28T07:17:39;11.13;;;4.53;;
19623;SDS011;9959;49.798;9.928;2023-02-28T07:20:05;9.90;;;4.17;;
19623;SDS011;9959;49.798;9.928;2023-02-28T07:22:32;11.47;;;5.10;;
19623;SDS011;9959;49.798;9.928;2023-02-28T07:24:59;8.87;;;5.00;;
19623;SDS011;9959;49.798;9.928;2023-02-28T07:27:26;12.00;;;5.17;;
19623;SDS011;9959;49.798;9.928;2023-02-28T07:29:53;13.53;;;4.87;;
19623;SDS011;9959;49.798;9.928;2023-02-28T07:32:20;10.63;;;3.47;;
19623;SDS011;9959;49.798;9.928;2023-02-28T07:34:47;9.53;;;4.97;;
19623;SDS011;9959;49.798;9.928;2023-02-28T07:37:14;15.00;;;5.37;;
19623;SDS011;9959;49.798;9.928;2023-02-28T07:39:41;14.00;;;4.53;;
19623;SDS011;9959;49.798;9.928;2023-02-28T07:42:08;12.98;;;4.75;;
19623;SDS011;9959;49.798;9.928;2023-02-28T07:44:39;10.23;;;4.17;;
19623;SDS011;9959;49.798;9.928;2023-02-28T07:47:06;9.20;;;4.30;;
19623;SDS011;9959;49.798;9.928;2023-02-28T07:49:36;11.00;;;5.17;;
19623;SDS011;9959;49.798;9.928;2023-02-28T07:52:03;7.80;;;3.43;;
19623;SDS011;9959;49.798;9.928;2023-02-28T07:54:32;10.73;;;4.47;;
19623;SDS011;9959;49.798;9.928;2023-02-28T07:56:59;6.73;;;3.70;;
19623;SDS011;9959;49.798;9.928;2023-02-28T07:59:26;12.47;;;5.60;;
19623;SDS011;9959;49.798;9.928;2023-02-28T08:01:53;9.10;;;4.57;;
19623;SDS011;9959;49.798;9.928;2023-02-28T08:04:24;11.87;;;6.07;;
19623;SDS011;9959;49.798;9.928;2023-02-28T08:06:51;13.80;;;6.20;;
19623;SDS011;9959;49.798;9.928;2023-02-28T08:09:19;11.10;;;5.73;;
19623;SDS011;9959;49.798;9.928;2023-02-28T08:11:46;13.85;;;5.55;;
19623;SDS011;9959;49.798;9.928;2023-02-28T08:14:12;10.57;;;4.97;;
19623;SDS011;9959;49.798;9.928;2023-02-28T08:16:40;7.90;;;4.47;;
19623;SDS011;9959;49.798;9.928;2023-02-28T08:19:05;15.95;;;6.35;;
19623;SDS011;9959;49.798;9.928;2023-02-28T08:21:32;15.48;;;7.13;;
19623;SDS011;9959;49.798;9.928;2023-02-28T08:23:59;13.20;;;6.70;;
19623;SDS011;9959;49.798;9.928;2023-02-28T08:26:26;9.50;;;4.40;;
19623;SDS011;9959;49.798;9.928;2023-02-28T08:28:52;14.52;;;6.40;;
19623;SDS011;9959;49.798;9.928;2023-02-28T08:31:22;13.80;;;5.45;;
19623;SDS011;9959;49.798;9.928;2023-02-28T08:33:49;13.95;;;6.22;;
19623;SDS011;9959;49.798;9.928;2023-02-28T08:36:18;14.52;;;5.85;;
19623;SDS011;9959;49.798;9.928;2023-02-28T08:38:46;14.85;;;6.18;;
19623;SDS011;9959;49.798;9.928;2023-02-28T08:41:13;15.80;;;6.28;;
19623;SDS011;9959;49.798;9.928;2023-02-28T08:43:40;9.00;;;3.67;;
19623;SDS011;9959;49.798;9.928;2023-02-28T08:46:08;19.13;;;7.32;;
19623;SDS011;9959;49.798;9.928;2023-02-28T08:48:38;18.13;;;7.18;;
19623;SDS011;9959;49.798;9.928;2023-02-28T08:51:09;14.45;;;6.30;;
19623;SDS011;9959;49.798;9.928;2023-02-28T08:53:38;15.57;;;6.65;;
19623;SDS011;9959;49.798;9.928;2023-02-28T08:56:08;13.50;;;6.43;;
19623;SDS011;9959;49.798;9.928;2023-02-28T08:58:37;14.00;;;6.70;;
19623;SDS011;9959;49.798;9.928;2023-02-28T09:01:11;17.00;;;7.85;;
19623;SDS011;9959;49.798;9.928;2023-02-28T09:03:39;16.08;;;7.68;;
19623;SDS011;9959;49.798;9.928;2023-02-28T09:06:08;18.17;;;8.45;;
19623;SDS011;9959;49.798;9.928;2023-02-28T09:08:36;13.05;;;6.85;;
19623;SDS011;9959;49.798;9.928;2023-02-28T09:11:03;20.23;;;6.97;;
19623;SDS011;9959;49.798;9.928;2023-02-28T09:13:31;15.77;;;6.35;;
19623;SDS011;9959;49.798;9.928;2023-02-28T09:16:01;14.95;;;6.28;;
19623;SDS011;9959;49.798;9.928;2023-02-28T09:18:30;15.00;;;6.63;;
19623;SDS011;9959;49.798;9.928;2023-02-28T09:20:57;15.75;;;6.57;;
19623;SDS011;9959;49.798;9.928;2023-02-28T09:23:24;11.05;;;5.75;;
19623;SDS011;9959;49.798;9.928;2023-02-28T09:25:51;15.02;;;6.50;;
19623;SDS011;9959;49.798;9.928;2023-02-28T09:28:20;14.93;;;7.63;;
19623;SDS011;9959;49.798;9.928;2023-02-28T09:30:48;12.48;;;7.07;;
19623;SDS011;9959;49.798;9.928;2023-02-28T09:33:17;17.92;;;7.95;;
19623;SDS011;9959;49.798;9.928;2023-02-28T09:35:47;13.68;;;6.97;;
19623;SDS011;9959;49.798;9.928;2023-02-28T09:38:14;11.52;;;5.18;;
19623;SDS011;9959;49.798;9.928;2023-02-28T09:40:51;9.40;;;5.90;;
19623;SDS011;9959;49.798;9.928;2023-02-28T09:43:20;14.70;;;7.70;;
19623;SDS011;9959;49.798;9.928;2023-02-28T09:46:11;14.95;;;5.65;;
19623;SDS011;9959;49.798;9.928;2023-02-28T09:48:44;11.57;;;5.18;;
19623;SDS011;9959;49.798;9.928;2023-02-28T09:54:02;13.05;;;6.60;;
19623;SDS011;9959;49.798;9.928;2023-02-28T09:59:17;14.07;;;7.10;;
19623;SDS011;9959;49.798;9.928;2023-02-28T10:04:50;12.88;;;6.63;;
19623;SDS011;9959;49.798;9.928;2023-02-28T10:07:25;14.57;;;7.40;;
19623;SDS011;9959;49.798;9.928;2023-02-28T10:10:02;11.50;;;6.97;;
19623;SDS011;9959;49.798;9.928;2023-02-28T10:12:35;12.60;;;7.68;;
19623;SDS011;9959;49.798;9.928;2023-02-28T10:15:07;15.02;;;6.40;;
19623;SDS011;9959;49.798;9.928;2023-02-28T10:17:41;15.25;;;6.75;;
19623;SDS011;9959;49.798;9.928;2023-02-28T10:20:21;12.73;;;7.78;;
19623;SDS011;9959;49.798;9.928;2023-02-28T10:23:10;14.82;;;8.02;;
19623;SDS011;9959;49.798;9.928;2023-02-28T10:25:44;12.98;;;7.47;;
19623;SDS011;9959;49.798;9.928;2023-02-28T10:28:16;17.52;;;7.80;;
19623;SDS011;9959;49.798;9.928;2023-02-28T10:30:48;14.55;;;7.10;;
19623;SDS011;9959;49.798;9.928;2023-02-28T10:33:21;15.05;;;7.40;;
19623;SDS011;9959;49.798;9.928;2023-02-28T10:35:50;14.18;;;7.68;;
19623;SDS011;9959;49.798;9.928;2023-02-28T10:38:22;12.77;;;6.07;;
19623;SDS011;9959;49.798;9.928;2023-02-28T10:40:51;18.02;;;6.90;;
19623;SDS011;9959;49.798;9.928;2023-02-28T10:43:29;15.57;;;7.70;;
19623;SDS011;9959;49.798;9.928;2023-02-28T10:45:57;11.68;;;7.10;;
19623;SDS011;9959;49.798;9.928;2023-02-28T10:49:02;13.23;;;7.35;;
19623;SDS011;9959;49.798;9.928;2023-02-28T10:51:36;12.25;;;6.55;;
19623;SDS011;9959;49.798;9.928;2023-02-28T10:54:03;14.25;;;7.85;;
19623;SDS011;9959;49.798;9.928;2023-02-28T10:56:31;12.70;;;7.47;;
19623;SDS011;9959;49.798;9.928;2023-02-28T10:59:03;12.63;;;7.88;;
19623;SDS011;9959;49.798;9.928;2023-02-28T11:01:57;14.68;;;7.47;;
19623;SDS011;9959;49.798;9.928;2023-02-28T11:07:03;11.70;;;7.07;;
19623;SDS011;9959;49.798;9.928;2023-02-28T11:09:33;13.27;;;6.70;;
19623;SDS011;9959;49.798;9.928;2023-02-28T11:12:17;17.38;;;8.43;;
19623;SDS011;9959;49.798;9.928;2023-02-28T11:15:06;15.48;;;7.55;;
19623;SDS011;9959;49.798;9.928;2023-02-28T11:17:40;18.58;;;8.20;;
19623;SDS011;9959;49.798;9.928;2023-02-28T11:20:10;16.15;;;7.95;;
19623;SDS011;9959;49.798;9.928;2023-02-28T11:22:47;15.77;;;8.20;;
19623;SDS011;9959;49.798;9.928;2023-02-28T11:28:23;13.10;;;6.97;;
19623;SDS011;9959;49.798;9.928;2023-02-28T11:31:35;16.23;;;8.15;;
19623;SDS011;9959;49.798;9.928;2023-02-28T11:33:52;15.63;;;8.70;;
19623;SDS011;9959;49.798;9.928;2023-02-28T11:36:26;14.90;;;8.52;;
19623;SDS011;9959;49.798;9.928;2023-02-28T11:38:56;10.77;;;6.80;;
19623;SDS011;9959;49.798;9.928;2023-02-28T11:44:09;14.05;;;7.88;;
19623;SDS011;9959;49.798;9.928;2023-02-28T11:54:40;16.23;;;8.80;;
19623;SDS011;9959;49.798;9.928;2023-02-28T12:00:02;13.38;;;7.72;;
19623;SDS011;9959;49.798;9.928;2023-02-28T12:10:35;14.57;;;7.63;;
19623;SDS011;9959;49.798;9.928;2023-02-28T12:13:21;14.40;;;8.57;;
19623;SDS011;9959;49.798;9.928;2023-02-28T12:16:00;14.55;;;8.35;;
19623;SDS011;9959;49.798;9.928;2023-02-28T12:26:50;12.85;;;7.10;;
19623;SDS011;9959;49.798;9.928;2023-02-28T12:34:52;13.38;;;7.72;;
19623;SDS011;9959;49.798;9.928;2023-02-28T12:37:28;12.57;;;7.45;;
19623;SDS011;9959;49.798;9.928;2023-02-28T12:40:03;16.23;;;8.52;;
19623;SDS011;9959;49.798;9.928;2023-02-28T12:42:41;13.60;;;8.35;;
19623;SDS011;9959;49.798;9.928;2023-02-28T12:47:40;15.07;;;9.00;;
19623;SDS011;9959;49.798;9.928;2023-02-28T12:50:08;12.30;;;7.53;;
19623;SDS011;9959;49.798;9.928;2023-02-28T13:06:55;15.88;;;8.20;;
19623;SDS011;9959;49.798;9.928;2023-02-28T13:09:51;16.83;;;8.82;;
19623;SDS011;9959;49.798;9.928;2023-02-28T13:12:23;16.20;;;8.32;;
19623;SDS011;9959;49.798;9.928;2023-02-28T13:14:50;12.88;;;8.30;;
19623;SDS011;9959;49.798;9.928;2023-02-28T13:17:49;15.55;;;8.45;;
19623;SDS011;9959;49.798;9.928;2023-02-28T13:20:33;14.73;;;8.20;;
19623;SDS011;9959;49.798;9.928;2023-02-28T13:23:02;13.35;;;8.50;;
19623;SDS011;9959;49.798;9.928;2023-02-28T13:28:08;13.05;;;8.63;;
19623;SDS011;9959;49.798;9.928;2023-02-28T13:33:28;14.25;;;8.38;;
19623;SDS011;9959;49.798;9.928;2023-02-28T13:39:03;13.77;;;7.97;;
19623;SDS011;9959;49.798;9.928;2023-02-28T13:41:50;12.18;;;8.38;;
19623;SDS011;9959;49.798;9.928;2023-02-28T13:51:49;14.70;;;9.40;;
19623;SDS011;9959;49.798;9.928;2023-02-28T14:08:57;12.07;;;8.82;;
19623;SDS011;9959;49.798;9.928;2023-02-28T14:11:46;14.10;;;8.73;;
19623;SDS011;9959;49.798;9.928;2023-02-28T14:17:03;13.38;;;9.27;;
19623;SDS011;9959;49.798;9.928;2023-02-28T14:19:36;12.23;;;8.68;;
19623;SDS011;9959;49.798;9.928;2023-02-28T14:25:10;14.65;;;9.05;;
19623;SDS011;9959;49.798;9.928;2023-02-28T14:28:04;14.38;;;8.98;;
19623;SDS011;9959;49.798;9.928;2023-02-28T14:30:40;15.18;;;9.32;;
19623;SDS011;9959;49.798;9.928;2023-02-28T14:38:35;17.33;;;9.13;;
19623;SDS011;9959;49.798;9.928;2023-02-28T14:41:06;15.00;;;8.82;;
19623;SDS011;9959;49.798;9.928;2023-02-28T14:43:47;16.73;;;9.00;;
19623;SDS011;9959;49.798;9.928;2023-02-28T14:46:24;13.20;;;8.70;;
19623;SDS011;9959;49.798;9.928;2023-02-28T14:48:55;12.82;;;8.63;;
19623;SDS011;9959;49.798;9.928;2023-02-28T14:51:22;12.60;;;8.40;;
19623;SDS011;9959;49.798;9.928;2023-02-28T14:53:52;14.38;;;8.95;;
19623;SDS011;9959;49.798;9.928;2023-02-28T14:56:24;14.27;;;8.35;;
19623;SDS011;9959;49.798;9.928;2023-02-28T14:58:55;16.58;;;9.95;;
19623;SDS011;9959;49.798;9.928;2023-02-28T15:01:25;16.23;;;8.38;;
19623;SDS011;9959;49.798;9.928;2023-02-28T15:03:59;17.13;;;9.48;;
19623;SDS011;9959;49.798;9.928;2023-02-28T15:06:29;14.40;;;8.95;;
19623;SDS011;9959;49.798;9.928;2023-02-28T15:09:06;13.60;;;8.60;;
19623;SDS011;9959;49.798;9.928;2023-02-28T15:11:34;16.67;;;9.05;;
19623;SDS011;9959;49.798;9.928;2023-02-28T15:14:03;13.95;;;9.15;;
19623;SDS011;9959;49.798;9.928;2023-02-28T15:16:41;14.35;;;8.48;;
19623;SDS011;9959;49.798;9.928;2023-02-28T15:19:15;14.57;;;9.13;;
19623;SDS011;9959;49.798;9.928;2023-02-28T15:21:55;13.73;;;8.70;;
19623;SDS011;9959;49.798;9.928;2023-02-28T15:27:20;14.90;;;9.45;;
19623;SDS011;9959;49.798;9.928;2023-02-28T15:29:59;16.05;;;8.75;;
19623;SDS011;9959;49.798;9.928;2023-02-28T15:32:32;12.68;;;8.43;;
19623;SDS011;9959;49.798;9.928;2023-02-28T15:40:25;15.57;;;8.45;;
19623;SDS011;9959;49.798;9.928;2023-02-28T15:48:23;18.17;;;9.02;;
19623;SDS011;9959;49.798;9.928;2023-02-28T15:51:16;15.38;;;8.63;;
19623;SDS011;9959;49.798;9.928;2023-02-28T15:54:00;18.48;;;8.40;;
19623;SDS011;9959;49.798;9.928;2023-02-28T15:56:33;15.32;;;9.25;;
19623;SDS011;9959;49.798;9.928;2023-02-28T15:59:05;13.45;;;8.10;;
19623;SDS011;9959;49.798;9.928;2023-02-28T16:01:40;15.90;;;8.40;;
19623;SDS011;9959;49.798;9.928;2023-02-28T16:04:11;16.83;;;8.57;;
19623;SDS011;9959;49.798;9.928;2023-02-28T16:09:24;15.25;;;8.15;;
19623;SDS011;9959;49.798;9.928;2023-02-28T16:11:52;18.70;;;8.88;;
19623;SDS011;9959;49.798;9.928;2023-02-28T16:14:22;17.00;;;9.10;;
19623;SDS011;9959;49.798;9.928;2023-02-28T16:16:52;15.40;;;8.75;;
19623;SDS011;9959;49.798;9.928;2023-02-28T16:19:23;18.17;;;8.63;;
19623;SDS011;9959;49.798;9.928;2023-02-28T16:21:50;17.95;;;9.68;;
19623;SDS011;9959;49.798;9.928;2023-02-28T16:24:17;16.33;;;8.38;;
19623;SDS011;9959;49.798;9.928;2023-02-28T16:26:47;17.13;;;9.30;;
19623;SDS011;9959;49.798;9.928;2023-02-28T16:29:36;16.25;;;8.90;;
19623;SDS011;9959;49.798;9.928;2023-02-28T16:32:04;19.80;;;9.30;;
19623;SDS011;9959;49.798;9.928;2023-02-28T16:34:31;16.67;;;9.80;;
19623;SDS011;9959;49.798;9.928;2023-02-28T16:36:58;20.02;;;9.57;;
19623;SDS011;9959;49.798;9.928;2023-02-28T16:39:26;15.38;;;8.73;;
19623;SDS011;9959;49.798;9.928;2023-02-28T16:41:55;19.60;;;9.13;;
19623;SDS011;9959;49.798;9.928;2023-02-28T16:44:29;18.23;;;9.23;;
19623;SDS011;9959;49.798;9.928;2023-02-28T16:47:00;19.40;;;9.57;;
19623;SDS011;9959;49.798;9.928;2023-02-28T16:49:28;17.38;;;9.10;;
19623;SDS011;9959;49.798;9.928;2023-02-28T16:51:55;18.88;;;9.27;;
19623;SDS011;9959;49.798;9.928;2023-02-28T16:54:22;14.93;;;8.30;;
19623;SDS011;9959;49.798;9.928;2023-02-28T16:56:49;17.55;;;8.75;;
19623;SDS011;9959;49.798;9.928;2023-02-28T16:59:18;18.85;;;9.43;;
19623;SDS011;9959;49.798;9.928;2023-02-28T17:01:48;19.90;;;9.07;;
19623;SDS011;9959;49.798;9.928;2023-02-28T17:04:16;19.33;;;9.23;;
19623;SDS011;9959;49.798;9.928;2023-02-28T17:06:43;19.40;;;9.07;;
19623;SDS011;9959;49.798;9.928;2023-02-28T17:09:14;19.38;;;9.25;;
19623;SDS011;9959;49.798;9.928;2023-02-28T17:11:43;17.30;;;8.43;;
19623;SDS011;9959;49.798;9.928;2023-02-28T17:14:14;21.48;;;8.77;;
19623;SDS011;9959;49.798;9.928;2023-02-28T17:16:41;20.48;;;9.45;;
19623;SDS011;9959;49.798;9.928;2023-02-28T17:19:11;23.08;;;10.00;;
19623;SDS011;9959;49.798;9.928;2023-02-28T17:21:41;21.75;;;9.63;;
19623;SDS011;9959;49.798;9.928;2023-02-28T17:24:09;21.55;;;9.63;;
19623;SDS011;9959;49.798;9.928;2023-02-28T17:26:55;24.35;;;9.65;;
19623;SDS011;9959;49.798;9.928;2023-02-28T17:29:21;23.48;;;9.32;;
19623;SDS011;9959;49.798;9.928;2023-02-28T17:31:48;18.70;;;9.50;;
19623;SDS011;9959;49.798;9.928;2023-02-28T17:34:15;24.50;;;9.50;;
19623;SDS011;9959;49.798;9.928;2023-02-28T17:36:47;18.60;;;9.93;;
19623;SDS011;9959;49.798;9.928;2023-02-28T17:39:15;21.67;;;9.73;;
19623;SDS011;9959;49.798;9.928;2023-02-28T17:41:51;20.55;;;9.73;;
19623;SDS011;9959;49.798;9.928;2023-02-28T17:44:18;25.08;;;10.05;;
19623;SDS011;9959;49.798;9.928;2023-02-28T17:46:46;18.83;;;9.43;;
19623;SDS011;9959;49.798;9.928;2023-02-28T17:49:17;20.33;;;9.10;;
19623;SDS011;9959;49.798;9.928;2023-02-28T17:51:45;21.15;;;8.98;;
19623;SDS011;9959;49.798;9.928;2023-02-28T17:54:13;18.08;;;8.80;;
19623;SDS011;9959;49.798;9.928;2023-02-28T17:56:43;18.83;;;7.85;;
19623;SDS011;9959;49.798;9.928;2023-02-28T17:59:10;22.00;;;8.20;;
19623;SDS011;9959;49.798;9.928;2023-02-28T18:01:38;17.92;;;7.93;;
19623;SDS011;9959;49.798;9.928;2023-02-28T18:04:05;21.40;;;7.55;;